Time;durP1;ratioP1;P1;durP2;ratioP2;P2;SDS_P1;SDS_P2;PMS_P1;PMS_P2;Temp;Humidity;BMP_temperature;BMP_pressure;BME280_temperature;BME280_humidity;BME280_pressure;Samples;Min_cycle;Max_cycle;Signal;HPM_P1;HPM_P2
2023/05/07 00:01:13;;;;;;;;;;;15.00;99.90;;;;;;5076008;28;19932;-78
2023/05/07 00:03:40;;;;;;;;;;;14.90;99.90;;;;;;5076477;28;19938;-77
2023/05/07 00:06:07;;;;;;;;;;;;;;;;;;5075111;28;19992;-77
2023/05/07 00:08:34;;;;;;;;;;;14.90;99.90;;;;;;5070094;28;19935;-77
2023/05/07 00:11:02;;;;;;;;;;;;;;;;;;5070106;28;20541;-77
2023/05/07 00:13:30;;;;;;;;;;;;;;;;;;5071983;28;19993;-77
2023/05/07 00:15:57;;;;;;;;;;;;;;;;;;5073072;28;20434;-77
2023/05/07 00:18:25;;;;;;;;;;;;;;;;;;5074510;28;20001;-77
2023/05/07 00:20:52;;;;;;;;;;;;;;;;;;5074737;28;19928;-77
2023/05/07 00:23:19;;;;;;;;;;;;;;;;;;5075077;28;19931;-78
2023/05/07 00:25:46;;;;;;;;;;;;;;;;;;5075902;28;19928;-77
2023/05/07 00:28:14;;;;;;;;;;;14.80;99.90;;;;;;5072085;28;20734;-77
2023/05/07 00:30:42;;;;;;;;;;;;;;;;;;5072102;28;19936;-77
2023/05/07 00:33:09;;;;;;;;;;;;;;;;;;5072547;28;20368;-77
2023/05/07 00:35:36;;;;;;;;;;;;;;;;;;5496848;22;19937;-77
2023/05/07 00:38:03;;;;;;;;;;;;;;;;;;5035872;28;19925;-77
2023/05/07 00:40:30;;;;;;;;;;;;;;;;;;5035419;28;19929;-78
2023/05/07 00:42:57;;;;;;;;;;;;;;;;;;5036723;28;19941;-78
2023/05/07 00:45:27;;;;;;;;;;;14.50;99.90;;;;;;5025818;28;19956;-79
2023/05/07 00:47:54;;;;;;;;;;;;;;;;;;5017181;28;19937;-78
2023/05/07 00:50:22;;;;;;;;;;;;;;;;;;5015237;28;19925;-78
2023/05/07 00:52:49;;;;;;;;;;;;;;;;;;5033789;28;19929;-78
2023/05/07 00:55:16;;;;;;;;;;;14.40;99.90;;;;;;4998696;28;19942;-79
2023/05/07 00:57:43;;;;;;;;;;;;;;;;;;4998054;28;19941;-79
2023/05/07 01:00:11;;;;;;;;;;;;;;;;;;5000262;28;19925;-78
2023/05/07 01:02:40;;;;;;;;;;;14.20;99.90;;;;;;5020802;28;19925;-79
2023/05/07 01:05:07;;;;;;;;;;;;;;;;;;5033496;28;20005;-78
2023/05/07 01:07:34;;;;;;;;;;;;;;;;;;5016722;28;19929;-78
2023/05/07 01:10:01;;;;;;;;;;;;;;;;;;5010803;28;20266;-77
2023/05/07 01:12:29;;;;;;;;;;;;;;;;;;5030434;28;20023;-78
2023/05/07 01:14:56;;;;;;;;;;;13.80;99.90;;;;;;5030649;28;19952;-78
2023/05/07 01:17:23;;;;;;;;;;;;;;;;;;5039499;28;19930;-77
2023/05/07 01:19:52;;;;;;;;;;;;;;;;;;5019661;28;20076;-78
2023/05/07 01:22:28;;;;;;;;;;;13.80;99.90;;;;;;5002682;28;19925;-77
2023/05/07 01:24:55;;;;;;;;;;;13.70;99.90;;;;;;5013486;28;19925;-78
2023/05/07 01:27:24;;;;;;;;;;;;;;;;;;5028049;28;20529;-78
2023/05/07 01:29:52;;;;;;;;;;;;;;;;;;5012831;28;19989;-78
2023/05/07 01:32:19;;;;;;;;;;;;;;;;;;5019954;28;19957;-78
2023/05/07 01:34:47;;;;;;;;;;;;;;;;;;5030239;28;19929;-78
2023/05/07 01:37:14;;;;;;;;;;;;;;;;;;5040141;28;20092;-78
2023/05/07 01:39:41;;;;;;;;;;;;;;;;;;5023258;28;19933;-77
2023/05/07 01:42:08;;;;;;;;;;;;;;;;;;5036887;28;19929;-78
2023/05/07 01:44:35;;;;;;;;;;;;;;;;;;5050670;28;19975;-78
2023/05/07 01:47:02;;;;;;;;;;;;;;;;;;5033288;28;19945;-78
2023/05/07 01:49:30;;;;;;;;;;;;;;;;;;5023700;28;19926;-77
2023/05/07 01:51:59;;;;;;;;;;;13.60;99.90;;;;;;5011538;28;19934;-78
2023/05/07 01:54:27;;;;;;;;;;;;;;;;;;5027267;28;19948;-77
2023/05/07 01:56:55;;;;;;;;;;;;;;;;;;5009996;28;19956;-78
2023/05/07 01:59:22;;;;;;;;;;;;;;;;;;5005098;28;19992;-78
2023/05/07 02:01:49;;;;;;;;;;;13.80;99.90;;;;;;5020745;28;19925;-77
2023/05/07 02:04:16;;;;;;;;;;;;;;;;;;5028900;28;20000;-77
2023/05/07 02:06:43;;;;;;;;;;;;;;;;;;5027590;28;19936;-77
2023/05/07 02:09:14;;;;;;;;;;;13.80;99.90;;;;;;5015411;28;19930;-77
2023/05/07 02:11:44;;;;;;;;;;;13.80;99.90;;;;;;5010760;28;20377;-77
2023/05/07 02:14:11;;;;;;;;;;;;;;;;;;5009684;28;19925;-77
2023/05/07 02:16:38;;;;;;;;;;;13.70;99.90;;;;;;5025310;28;19930;-77
2023/05/07 02:19:05;;;;;;;;;;;;;;;;;;5008351;28;20289;-77
2023/05/07 02:21:33;;;;;;;;;;;;;;;;;;5040055;28;19935;-77
2023/05/07 02:24:00;;;;;;;;;;;;;;;;;;5009857;28;19936;-77
2023/05/07 02:26:28;;;;;;;;;;;13.60;99.90;;;;;;5025243;28;19929;-77
2023/05/07 02:28:55;;;;;;;;;;;;;;;;;;5009827;28;20389;-77
2023/05/07 02:31:23;;;;;;;;;;;;;;;;;;5008735;28;19983;-76
2023/05/07 02:33:50;;;;;;;;;;;;;;;;;;5012760;28;20031;-78
2023/05/07 02:36:17;;;;;;;;;;;;;;;;;;5038224;28;20380;-77
2023/05/07 02:39:00;;;;;;;;;;;;;;;;;;5011071;28;19945;-77
2023/05/07 02:41:29;;;;;;;;;;;13.40;99.90;;;;;;5000072;28;20033;-79
2023/05/07 02:43:57;;;;;;;;;;;;;;;;;;5025260;28;19934;-77
2023/05/07 02:46:24;;;;;;;;;;;;;;;;;;5027000;28;20028;-77
2023/05/07 02:48:58;;;;;;;;;;;;;;;;;;5028960;28;20281;-76
2023/05/07 02:51:26;;;;;;;;;;;;;;;;;;5045289;28;19999;-77
2023/05/07 02:53:54;;;;;;;;;;;;;;;;;;5044733;28;19925;-77
2023/05/07 02:56:22;;;;;;;;;;;13.30;99.90;;;;;;5018449;28;19930;-77
2023/05/07 02:58:49;;;;;;;;;;;;;;;;;;5009727;28;19930;-77
2023/05/07 03:01:17;;;;;;;;;;;;;;;;;;5025942;28;19965;-78
2023/05/07 03:03:58;;;;;;;;;;;13.20;99.90;;;;;;5009547;28;19934;-77
2023/05/07 03:06:25;;;;;;;;;;;13.20;99.90;;;;;;4994986;28;19930;-77
2023/05/07 03:08:52;;;;;;;;;;;13.20;99.90;;;;;;5005802;28;19930;-77
2023/05/07 03:11:20;;;;;;;;;;;13.30;99.90;;;;;;5006390;28;19937;-77
2023/05/07 03:13:48;;;;;;;;;;;;;;;;;;5007727;28;20345;-77
2023/05/07 03:16:16;;;;;;;;;;;;;;;;;;5019350;28;20488;-79
2023/05/07 03:18:43;;;;;;;;;;;13.20;99.90;;;;;;5032065;28;19929;-79
2023/05/07 03:21:10;;;;;;;;;;;;;;;;;;5026979;28;20385;-79
2023/05/07 03:23:37;;;;;;;;;;;;;;;;;;5040414;28;19955;-78
2023/05/07 03:26:04;;;;;;;;;;;;;;;;;;5046876;28;19936;-78
2023/05/07 03:28:32;;;;;;;;;;;;;;;;;;5012343;28;20491;-78
2023/05/07 03:31:02;;;;;;;;;;;;;;;;;;5023999;28;19956;-78
2023/05/07 03:33:33;;;;;;;;;;;13.20;99.90;;;;;;5043746;28;19933;-78
2023/05/07 03:36:01;;;;;;;;;;;;;;;;;;5020135;28;20043;-78
2023/05/07 03:38:28;;;;;;;;;;;13.20;99.90;;;;;;5016244;28;19925;-78
2023/05/07 03:40:55;;;;;;;;;;;13.20;99.90;;;;;;5021025;28;19995;-78
2023/05/07 03:43:22;;;;;;;;;;;13.20;99.90;;;;;;5031206;28;19936;-78
2023/05/07 03:45:57;;;;;;;;;;;;;;;;;;5036895;28;19936;-78
2023/05/07 03:48:26;;;;;;;;;;;;;;;;;;5035989;28;19964;-77
2023/05/07 03:50:56;;;;;;;;;;;;;;;;;;5048876;28;19936;-78
2023/05/07 03:53:24;;;;;;;;;;;13.20;99.90;;;;;;5040703;28;19929;-78
2023/05/07 03:55:52;;;;;;;;;;;;;;;;;;5030163;28;20425;-77
2023/05/07 03:58:19;;;;;;;;;;;13.20;99.90;;;;;;5025096;28;19926;-77
2023/05/07 04:00:48;;;;;;;;;;;13.20;99.90;;;;;;5024306;28;19929;-77
2023/05/07 04:03:27;;;;;;;;;;;13.20;99.90;;;;;;4993085;28;20027;-77
2023/05/07 04:05:57;;;;;;;;;;;;;;;;;;5025406;28;19930;-77
2023/05/07 04:08:25;;;;;;;;;;;;;;;;;;5017736;28;19930;-77
2023/05/07 04:10:54;;;;;;;;;;;;;;;;;;5015229;28;19933;-78
2023/05/07 04:13:23;;;;;;;;;;;13.30;99.90;;;;;;5033978;28;20326;-78
2023/05/07 04:15:50;;;;;;;;;;;;;;;;;;5038169;28;19929;-78
2023/05/07 04:18:19;;;;;;;;;;;13.30;99.90;;;;;;5038025;28;20023;-78
2023/05/07 04:20:49;;;;;;;;;;;;;;;;;;5042794;28;19959;-79
2023/05/07 04:23:16;;;;;;;;;;;13.40;99.90;;;;;;5042580;28;19929;-79
2023/05/07 04:25:45;;;;;;;;;;;;;;;;;;5058837;28;19925;-78
2023/05/07 04:28:25;;;;;;;;;;;;;;;;;;5042987;28;20032;-78
2023/05/07 04:30:52;;;;;;;;;;;;;;;;;;5060841;28;19929;-79
2023/05/07 04:33:21;;;;;;;;;;;;;;;;;;5061493;28;19925;-79
2023/05/07 04:35:50;;;;;;;;;;;;;;;;;;5044294;28;19929;-79
2023/05/07 04:38:19;;;;;;;;;;;13.50;99.90;;;;;;5062147;28;20176;-80
2023/05/07 04:40:47;;;;;;;;;;;;;;;;;;5043734;28;20153;-79
2023/05/07 04:43:18;;;;;;;;;;;;;;;;;;5037715;28;19933;-80
2023/05/07 04:45:50;;;;;;;;;;;;;;;;;;5033028;28;19972;-79
2023/05/07 04:48:19;;;;;;;;;;;;;;;;;;5039076;28;19932;-80
2023/05/07 04:50:48;;;;;;;;;;;13.80;99.90;;;;;;5024297;28;19925;-79
2023/05/07 04:53:17;;;;;;;;;;;;;;;;;;5033250;28;19929;-79
2023/05/07 04:55:45;;;;;;;;;;;14.00;99.90;;;;;;5033308;28;19953;-79
2023/05/07 04:58:13;;;;;;;;;;;;;;;;;;5031406;28;19929;-79
2023/05/07 05:00:42;;;;;;;;;;;;;;;;;;5044405;28;20039;-78
2023/05/07 05:03:09;;;;;;;;;;;;;;;;;;5029082;28;19960;-77
2023/05/07 05:05:38;;;;;;;;;;;14.50;99.90;;;;;;5010540;28;20365;-78
2023/05/07 05:08:06;;;;;;;;;;;;;;;;;;5011686;28;19952;-79
2023/05/07 05:10:35;;;;;;;;;;;14.60;99.90;;;;;;5023850;28;19965;-79
2023/05/07 05:13:03;;;;;;;;;;;14.70;99.90;;;;;;5028864;28;19925;-79
2023/05/07 05:15:32;;;;;;;;;;;;;;;;;;5013156;28;19925;-78
2023/05/07 05:17:59;;;;;;;;;;;;;;;;;;5012511;28;20289;-79
2023/05/07 05:20:27;;;;;;;;;;;;;;;;;;5048176;28;19925;-79
2023/05/07 05:22:54;;;;;;;;;;;15.10;99.90;;;;;;5022441;28;19932;-79
2023/05/07 05:25:21;;;;;;;;;;;15.10;99.90;;;;;;5052107;28;20011;-80
2023/05/07 05:27:49;;;;;;;;;;;15.30;99.90;;;;;;5027023;28;19929;-79
2023/05/07 05:30:17;;;;;;;;;;;;;;;;;;5014573;28;19932;-80
2023/05/07 05:32:46;;;;;;;;;;;;;;;;;;5029102;28;19932;-80
2023/05/07 05:35:13;;;;;;;;;;;;;;;;;;5029596;28;19936;-79
2023/05/07 05:37:43;;;;;;;;;;;15.50;99.90;;;;;;5015611;28;19929;-79
2023/05/07 05:40:10;;;;;;;;;;;15.60;99.90;;;;;;5017224;28;19925;-79
2023/05/07 05:42:37;;;;;;;;;;;;;;;;;;5025133;28;20002;-77
2023/05/07 05:45:05;;;;;;;;;;;15.80;99.90;;;;;;5029275;28;20337;-78
2023/05/07 05:47:35;;;;;;;;;;;16.00;99.90;;;;;;5037264;28;19936;-77
2023/05/07 05:50:03;;;;;;;;;;;16.40;99.90;;;;;;5020598;28;19993;-80
2023/05/07 05:52:31;;;;;;;;;;;16.70;99.90;;;;;;5016091;28;19999;-77
2023/05/07 05:54:58;;;;;;;;;;;;;;;;;;5032301;28;19933;-80
2023/05/07 05:57:27;;;;;;;;;;;;;;;;;;5033048;28;19932;-80
2023/05/07 05:59:54;;;;;;;;;;;;;;;;;;5032301;28;19987;-79
2023/05/07 06:02:22;;;;;;;;;;;;;;;;;;5032357;28;20024;-80
2023/05/07 06:04:51;;;;;;;;;;;;;;;;;;5037216;28;20537;-80
2023/05/07 06:07:22;;;;;;;;;;;18.20;99.90;;;;;;5012612;28;19960;-79
2023/05/07 06:09:50;;;;;;;;;;;18.40;99.90;;;;;;5010799;28;20017;-80
2023/05/07 06:12:20;;;;;;;;;;;18.40;99.90;;;;;;5018406;28;19934;-80
2023/05/07 06:14:48;;;;;;;;;;;18.60;99.90;;;;;;5014432;28;20389;-78
2023/05/07 06:17:15;;;;;;;;;;;18.80;99.90;;;;;;5009363;28;19926;-79
2023/05/07 06:19:42;;;;;;;;;;;18.80;99.90;;;;;;5028452;28;20126;-78
2023/05/07 06:22:10;;;;;;;;;;;18.80;99.90;;;;;;5013903;28;19949;-79
2023/05/07 06:24:38;;;;;;;;;;;18.60;99.90;;;;;;5014404;28;20344;-80
2023/05/07 06:27:07;;;;;;;;;;;;;;;;;;5014109;28;20304;-82
2023/05/07 06:29:34;;;;;;;;;;;18.30;99.90;;;;;;5012888;28;19937;-83
2023/05/07 06:32:09;;;;;;;;;;;;;;;;;;5016901;28;19929;-84
2023/05/07 06:34:40;;;;;;;;;;;18.30;99.90;;;;;;5019624;28;19937;-84
2023/05/07 06:37:08;;;;;;;;;;;18.40;99.90;;;;;;5025474;28;20381;-82
2023/05/07 06:39:57;;;;;;;;;;;;;;;;;;5024074;28;20078;-81
2023/05/07 06:42:24;;;;;;;;;;;;;;;;;;5021711;28;19940;-81
2023/05/07 06:44:57;;;;;;;;;;;18.40;99.90;;;;;;5026924;28;19925;-81
2023/05/07 06:47:24;;;;;;;;;;;18.50;99.90;;;;;;5019558;28;19968;-86
2023/05/07 06:49:55;;;;;;;;;;;18.60;99.90;;;;;;5024291;28;20001;-83
2023/05/07 06:52:25;;;;;;;;;;;;;;;;;;5028049;28;19930;-83
2023/05/07 06:54:53;;;;;;;;;;;18.80;99.90;;;;;;5027603;28;19952;-83
2023/05/07 06:57:22;;;;;;;;;;;19.00;99.90;;;;;;5023923;28;19956;-83
2023/05/07 06:59:51;;;;;;;;;;;19.20;99.90;;;;;;5025415;28;19934;-81
2023/05/07 07:02:20;;;;;;;;;;;19.50;99.90;;;;;;5010568;28;19930;-81
2023/05/07 07:04:54;;;;;;;;;;;;;;;;;;5020463;28;19929;-82
2023/05/07 07:07:22;;;;;;;;;;;;;;;;;;5007863;28;19957;-81
2023/05/07 07:09:51;;;;;;;;;;;20.10;99.90;;;;;;5024756;28;19935;-81
2023/05/07 07:12:20;;;;;;;;;;;20.50;99.90;;;;;;5014261;28;20286;-81
2023/05/07 07:14:50;;;;;;;;;;;;;;;;;;5006170;28;19932;-80
2023/05/07 07:17:17;;;;;;;;;;;21.20;99.90;;;;;;5035943;28;19929;-81
2023/05/07 07:19:45;;;;;;;;;;;;;;;;;;5022979;28;19941;-80
2023/05/07 07:22:13;;;;;;;;;;;21.80;99.90;;;;;;5028362;28;19989;-80
2023/05/07 07:24:41;;;;;;;;;;;19.40;99.90;;;;;;5000909;28;19980;-79
2023/05/07 07:27:10;;;;;;;;;;;21.50;99.90;;;;;;5023783;28;19929;-79
2023/05/07 07:29:39;;;;;;;;;;;;;;;;;;5034019;28;19932;-79
2023/05/07 07:32:06;;;;;;;;;;;21.70;99.90;;;;;;5051433;28;19929;-79
2023/05/07 07:34:33;;;;;;;;;;;22.00;99.90;;;;;;5020394;28;20276;-79
2023/05/07 07:37:05;;;;;;;;;;;22.80;99.90;;;;;;5018333;28;19953;-79
2023/05/07 07:39:34;;;;;;;;;;;23.00;99.90;;;;;;5018353;28;19925;-80
2023/05/07 07:42:01;;;;;;;;;;;24.20;99.90;;;;;;5017139;28;19964;-80
2023/05/07 07:44:30;;;;;;;;;;;25.80;99.90;;;;;;5018874;28;20651;-80
2023/05/07 07:47:01;;;;;;;;;;;25.90;99.90;;;;;;5034555;28;19960;-80
2023/05/07 07:49:28;;;;;;;;;;;25.80;99.90;;;;;;5017731;28;20036;-80
2023/05/07 07:51:59;;;;;;;;;;;25.60;99.90;;;;;;5019192;28;19930;-80
2023/05/07 07:54:26;;;;;;;;;;;26.50;99.90;;;;;;5016699;28;19929;-80
2023/05/07 07:57:25;;;;;;;;;;;26.80;99.90;;;;;;5016349;28;19940;-82
2023/05/07 07:59:55;;;;;;;;;;;27.10;99.90;;;;;;5011239;28;19925;-82
2023/05/07 08:02:26;;;;;;;;;;;27.70;99.90;;;;;;5019248;28;19929;-82
2023/05/07 08:04:53;;;;;;;;;;;28.80;99.90;;;;;;5008779;28;19944;-82
2023/05/07 08:07:24;;;;;;;;;;;29.00;99.90;;;;;;5036597;28;19926;-81
2023/05/07 08:09:51;;;;;;;;;;;29.90;99.90;;;;;;5028648;28;19929;-82
2023/05/07 08:12:24;;;;;;;;;;;30.40;99.90;;;;;;5037049;28;20015;-82
2023/05/07 08:14:51;;;;;;;;;;;30.90;99.90;;;;;;5039073;28;19925;-82
2023/05/07 08:17:18;;;;;;;;;;;30.80;99.90;;;;;;5040329;28;19972;-83
2023/05/07 08:19:48;;;;;;;;;;;30.50;99.90;;;;;;5046079;28;19925;-80
2023/05/07 08:22:17;;;;;;;;;;;31.10;99.90;;;;;;5006409;28;20317;-83
2023/05/07 08:24:44;;;;;;;;;;;31.30;99.90;;;;;;5016398;28;19926;-83
2023/05/07 08:27:12;;;;;;;;;;;31.10;99.90;;;;;;5028982;28;19985;-82
2023/05/07 08:29:42;;;;;;;;;;;30.50;99.90;;;;;;5013411;28;19975;-83
2023/05/07 08:32:10;;;;;;;;;;;30.30;99.90;;;;;;5027095;28;19984;-82
2023/05/07 08:34:37;;;;;;;;;;;29.90;99.90;;;;;;5020626;28;19926;-82
2023/05/07 08:37:06;;;;;;;;;;;29.20;99.90;;;;;;5018414;28;19936;-83
2023/05/07 08:39:34;;;;;;;;;;;28.80;99.90;;;;;;5013678;28;19929;-83
2023/05/07 08:42:04;;;;;;;;;;;28.90;99.90;;;;;;5016185;28;19925;-81
2023/05/07 08:44:35;;;;;;;;;;;30.10;99.90;;;;;;5033172;28;19968;-81
2023/05/07 08:47:07;;;;;;;;;;;30.30;99.90;;;;;;5018677;28;19940;-81
2023/05/07 08:49:35;;;;;;;;;;;30.40;99.90;;;;;;5017136;28;19933;-82
2023/05/07 08:52:03;;;;;;;;;;;30.80;99.90;;;;;;5032781;28;19929;-82
2023/05/07 08:54:31;;;;;;;;;;;31.20;99.90;;;;;;5016551;28;20572;-81
2023/05/07 08:57:00;;;;;;;;;;;31.30;99.90;;;;;;5018830;28;19988;-81
2023/05/07 08:59:28;;;;;;;;;;;31.40;99.90;;;;;;5017594;28;20021;-82
2023/05/07 09:01:55;;;;;;;;;;;31.60;99.90;;;;;;5025484;28;19933;-81
2023/05/07 09:04:24;;;;;;;;;;;30.50;99.90;;;;;;5020258;28;19933;-81
2023/05/07 09:06:51;;;;;;;;;;;30.50;99.90;;;;;;5023044;28;20345;-82
2023/05/07 09:09:19;;;;;;;;;;;30.40;99.90;;;;;;5034252;28;19926;-82
2023/05/07 09:11:46;;;;;;;;;;;30.40;99.90;;;;;;5017322;28;19952;-82
2023/05/07 09:14:16;;;;;;;;;;;;;;;;;;5017804;28;20059;-82
2023/05/07 09:16:47;;;;;;;;;;;32.00;99.90;;;;;;5015602;28;20327;-82
2023/05/07 09:19:14;;;;;;;;;;;33.00;99.90;;;;;;5014773;28;19933;-83
2023/05/07 09:21:46;;;;;;;;;;;33.80;99.90;;;;;;5015509;28;19929;-81
2023/05/07 09:24:16;;;;;;;;;;;34.00;99.50;;;;;;5028698;28;19932;-83
2023/05/07 09:26:43;;;;;;;;;;;33.80;98.10;;;;;;5014224;28;19980;-81
2023/05/07 09:29:11;;;;;;;;;;;32.30;97.40;;;;;;5015733;28;19983;-84
2023/05/07 09:31:39;;;;;;;;;;;33.00;97.10;;;;;;5022715;28;19939;-83
2023/05/07 09:34:08;;;;;;;;;;;32.20;96.30;;;;;;5013588;28;20441;-83
2023/05/07 09:36:37;;;;;;;;;;;31.40;96.50;;;;;;5012587;28;19929;-80
2023/05/07 09:39:07;;;;;;;;;;;31.10;97.20;;;;;;5010373;28;19930;-80
2023/05/07 09:41:44;;;;;;;;;;;31.00;96.80;;;;;;5022793;28;19929;-80
2023/05/07 09:44:16;;;;;;;;;;;32.40;97.80;;;;;;5018655;28;20189;-81
2023/05/07 09:46:48;;;;;;;;;;;30.90;97.00;;;;;;5009451;28;19933;-81
2023/05/07 09:49:24;;;;;;;;;;;31.10;97.80;;;;;;5013878;28;19947;-80
2023/05/07 09:51:58;;;;;;;;;;;31.40;96.50;;;;;;5018710;28;19932;-81
2023/05/07 09:54:29;;;;;;;;;;;30.70;95.20;;;;;;5029901;28;20029;-81
2023/05/07 09:56:57;;;;;;;;;;;30.70;95.00;;;;;;5005206;28;19936;-81
2023/05/07 09:59:29;;;;;;;;;;;30.40;95.30;;;;;;5029257;28;20760;-82
2023/05/07 10:01:58;;;;;;;;;;;30.10;95.20;;;;;;5031727;28;19929;-81
2023/05/07 10:04:25;;;;;;;;;;;29.90;95.30;;;;;;5014323;28;20639;-80
2023/05/07 10:06:53;;;;;;;;;;;29.90;95.10;;;;;;5013483;28;19974;-81
2023/05/07 10:09:21;;;;;;;;;;;29.60;94.80;;;;;;5013821;28;20378;-80
2023/05/07 10:11:50;;;;;;;;;;;29.50;95.40;;;;;;5014628;28;19930;-80
2023/05/07 10:14:17;;;;;;;;;;;;;;;;;;5015152;28;19948;-80
2023/05/07 10:16:44;;;;;;;;;;;29.70;95.40;;;;;;5013007;28;20033;-81
2023/05/07 10:19:17;;;;;;;;;;;29.90;96.00;;;;;;5008483;28;19933;-82
2023/05/07 10:21:50;;;;;;;;;;;29.90;94.80;;;;;;5004950;28;19932;-82
2023/05/07 10:24:17;;;;;;;;;;;;;;;;;;5012762;28;19925;-81
2023/05/07 10:27:00;;;;;;;;;;;29.20;94.60;;;;;;5061868;28;19944;-78
2023/05/07 10:29:31;;;;;;;;;;;29.00;95.30;;;;;;5061237;28;19940;-80
2023/05/07 10:32:00;;;;;;;;;;;29.00;95.40;;;;;;5056747;28;20305;-78
2023/05/07 10:34:33;;;;;;;;;;;29.10;95.60;;;;;;5072776;28;19997;-79
2023/05/07 10:37:00;;;;;;;;;;;29.00;95.10;;;;;;5066011;28;19932;-78
2023/05/07 10:39:27;;;;;;;;;;;28.70;95.10;;;;;;5050649;28;19931;-80
2023/05/07 10:41:54;;;;;;;;;;;28.30;95.00;;;;;;5047728;28;19925;-78
2023/05/07 10:44:29;;;;;;;;;;;28.40;95.50;;;;;;5047826;28;19925;-76
2023/05/07 10:47:05;;;;;;;;;;;28.40;96.00;;;;;;5056318;28;19929;-78
2023/05/07 10:49:32;;;;;;;;;;;28.60;95.60;;;;;;5060589;28;19990;-78
2023/05/07 10:52:14;;;;;;;;;;;28.70;95.60;;;;;;5046176;28;19940;-79
2023/05/07 10:54:45;;;;;;;;;;;29.00;96.00;;;;;;5048777;28;20035;-78
2023/05/07 10:57:29;;;;;;;;;;;29.00;95.50;;;;;;5046119;28;19929;-79
2023/05/07 10:59:57;;;;;;;;;;;29.30;95.80;;;;;;5043937;28;19928;-79
2023/05/07 11:02:43;;;;;;;;;;;29.60;95.20;;;;;;5046652;28;19971;-78
2023/05/07 11:05:20;;;;;;;;;;;29.50;94.80;;;;;;5046247;28;19929;-78
2023/05/07 11:07:54;;;;;;;;;;;29.90;94.60;;;;;;5047844;28;20012;-79
2023/05/07 11:10:21;;;;;;;;;;;29.30;94.60;;;;;;5045508;28;19982;-79
2023/05/07 11:12:56;;;;;;;;;;;29.40;94.80;;;;;;5043370;28;20019;-78
2023/05/07 11:15:44;;;;;;;;;;;29.40;94.00;;;;;;5051544;28;19991;-78
2023/05/07 11:18:47;;;;;;;;;;;29.20;93.80;;;;;;5046043;28;19932;-78
2023/05/07 11:21:14;;;;;;;;;;;29.00;94.20;;;;;;5045221;28;20389;-78
2023/05/07 11:23:58;;;;;;;;;;;29.00;94.60;;;;;;5045583;28;19978;-78
2023/05/07 11:26:31;;;;;;;;;;;29.00;94.20;;;;;;5143578;22;19952;-81
2023/05/07 11:29:01;;;;;;;;;;;28.90;94.70;;;;;;5052230;28;20015;-81
2023/05/07 11:31:29;;;;;;;;;;;28.60;94.40;;;;;;5052474;28;19948;-81
2023/05/07 11:33:58;;;;;;;;;;;28.30;94.50;;;;;;5057961;28;19950;-82
2023/05/07 11:36:27;;;;;;;;;;;28.00;94.00;;;;;;5070472;28;19937;-81
2023/05/07 11:38:55;;;;;;;;;;;27.70;94.40;;;;;;5036206;28;20008;-81
2023/05/07 11:41:23;;;;;;;;;;;27.70;95.00;;;;;;5036857;28;19933;-80
2023/05/07 11:43:57;;;;;;;;;;;27.70;95.30;;;;;;5035374;28;19931;-81
2023/05/07 11:46:24;;;;;;;;;;;27.60;95.10;;;;;;5033762;28;19944;-82
2023/05/07 11:48:52;;;;;;;;;;;27.50;96.00;;;;;;5036472;28;20360;-81
2023/05/07 11:51:20;;;;;;;;;;;27.60;96.60;;;;;;5037037;28;19951;-81
2023/05/07 11:53:50;;;;;;;;;;;27.30;95.20;;;;;;5070642;28;19929;-81
2023/05/07 11:56:18;;;;;;;;;;;27.10;95.60;;;;;;5040547;28;20308;-80
2023/05/07 11:58:47;;;;;;;;;;;26.90;95.80;;;;;;5037234;28;19979;-80
2023/05/07 12:01:14;;;;;;;;;;;26.30;95.90;;;;;;5037426;28;19935;-80
2023/05/07 12:03:47;;;;;;;;;;;26.10;96.60;;;;;;5036232;28;19933;-82
2023/05/07 12:06:16;;;;;;;;;;;25.80;96.30;;;;;;5037634;28;20452;-81
2023/05/07 12:08:44;;;;;;;;;;;25.60;96.90;;;;;;5037597;28;19939;-80
2023/05/07 12:11:14;;;;;;;;;;;25.60;97.70;;;;;;5037113;28;20495;-81
2023/05/07 12:13:41;;;;;;;;;;;25.60;97.60;;;;;;5069168;28;20027;-81
2023/05/07 12:16:09;;;;;;;;;;;25.60;97.50;;;;;;5068009;28;19968;-80
2023/05/07 12:18:36;;;;;;;;;;;25.80;98.40;;;;;;5034510;28;19929;-80
2023/05/07 12:21:04;;;;;;;;;;;26.00;98.00;;;;;;5035309;28;19929;-81
2023/05/07 12:23:34;;;;;;;;;;;26.00;98.10;;;;;;5069182;28;19929;-81
2023/05/07 12:26:01;;;;;;;;;;;26.10;98.00;;;;;;5035139;28;19925;-81
2023/05/07 12:28:30;;;;;;;;;;;26.10;98.40;;;;;;5038217;28;19968;-81
2023/05/07 12:30:57;;;;;;;;;;;26.20;98.60;;;;;;5070376;28;19925;-82
2023/05/07 12:33:25;;;;;;;;;;;26.20;98.40;;;;;;5037797;28;19929;-80
2023/05/07 12:35:54;;;;;;;;;;;26.10;98.10;;;;;;5031999;28;20024;-79
2023/05/07 12:38:21;;;;;;;;;;;25.90;97.90;;;;;;5036625;28;20401;-80
2023/05/07 12:40:51;;;;;;;;;;;25.90;98.10;;;;;;5036445;28;19987;-80
2023/05/07 12:43:19;;;;;;;;;;;25.50;98.10;;;;;;5035962;28;19929;-81
2023/05/07 12:45:47;;;;;;;;;;;24.90;98.10;;;;;;5040358;28;19925;-80
2023/05/07 12:48:15;;;;;;;;;;;24.80;98.70;;;;;;5037345;28;20448;-79
2023/05/07 12:50:42;;;;;;;;;;;24.50;98.80;;;;;;5076467;28;19928;-80
2023/05/07 12:53:11;;;;;;;;;;;24.50;98.90;;;;;;5050589;28;19926;-81
2023/05/07 12:55:42;;;;;;;;;;;24.50;98.90;;;;;;5038087;28;20015;-80
2023/05/07 12:58:15;;;;;;;;;;;24.40;99.60;;;;;;5037960;28;19925;-81
2023/05/07 13:00:43;;;;;;;;;;;24.40;99.80;;;;;;5071910;28;19967;-81
2023/05/07 13:03:10;;;;;;;;;;;24.40;99.80;;;;;;5072730;28;19925;-81
2023/05/07 13:05:37;;;;;;;;;;;24.40;99.50;;;;;;5037057;28;20388;-80
2023/05/07 13:08:04;;;;;;;;;;;24.30;99.90;;;;;;5037884;28;19929;-80
2023/05/07 13:10:35;;;;;;;;;;;24.20;99.90;;;;;;5038879;28;19932;-81
2023/05/07 13:13:02;;;;;;;;;;;24.20;99.90;;;;;;5038217;28;19961;-81
2023/05/07 13:15:31;;;;;;;;;;;24.10;99.90;;;;;;5037256;28;19940;-81
2023/05/07 13:17:59;;;;;;;;;;;24.00;99.90;;;;;;5039249;28;20403;-81
2023/05/07 13:20:26;;;;;;;;;;;23.80;99.90;;;;;;5040091;28;19929;-81
2023/05/07 13:22:53;;;;;;;;;;;23.60;99.90;;;;;;5042907;28;19929;-82
2023/05/07 13:25:20;;;;;;;;;;;23.30;99.90;;;;;;5037868;28;19936;-81
2023/05/07 13:27:47;;;;;;;;;;;23.10;99.90;;;;;;5031891;28;19925;-81
2023/05/07 13:30:15;;;;;;;;;;;23.10;99.90;;;;;;5042592;28;19933;-81
2023/05/07 13:32:45;;;;;;;;;;;23.00;99.90;;;;;;5041027;28;19925;-79
2023/05/07 13:35:12;;;;;;;;;;;22.80;99.90;;;;;;5073020;28;19933;-81
2023/05/07 13:37:40;;;;;;;;;;;22.70;99.90;;;;;;5039815;28;19937;-80
2023/05/07 13:40:11;;;;;;;;;;;22.70;99.90;;;;;;5040610;28;19952;-80
2023/05/07 13:42:38;;;;;;;;;;;22.70;99.90;;;;;;5039268;28;19929;-81
2023/05/07 13:45:06;;;;;;;;;;;22.60;99.90;;;;;;5043458;28;19925;-80
2023/05/07 13:47:33;;;;;;;;;;;22.50;99.90;;;;;;5040856;28;19977;-82
2023/05/07 13:50:04;;;;;;;;;;;22.40;99.90;;;;;;5041988;28;19957;-80
2023/05/07 13:52:31;;;;;;;;;;;22.30;99.90;;;;;;5041190;28;19932;-81
2023/05/07 13:54:58;;;;;;;;;;;21.90;99.90;;;;;;5073772;28;19979;-81
2023/05/07 13:57:25;;;;;;;;;;;21.80;99.90;;;;;;5041979;28;20039;-81
2023/05/07 13:59:52;;;;;;;;;;;21.60;99.90;;;;;;5043447;28;19925;-81
2023/05/07 14:02:19;;;;;;;;;;;21.50;99.90;;;;;;5041267;28;19952;-81
2023/05/07 14:04:49;;;;;;;;;;;21.30;99.90;;;;;;5041090;28;19929;-80
2023/05/07 14:07:18;;;;;;;;;;;21.30;99.90;;;;;;5076743;28;20328;-80
2023/05/07 14:09:45;;;;;;;;;;;21.20;99.90;;;;;;5043222;28;19936;-81
2023/05/07 14:12:12;;;;;;;;;;;21.10;99.90;;;;;;5039562;28;20444;-80
2023/05/07 14:14:42;;;;;;;;;;;20.90;99.90;;;;;;5031453;28;19999;-78
2023/05/07 14:17:19;;;;;;;;;;;20.90;99.90;;;;;;5033308;28;19987;-78
2023/05/07 14:19:47;;;;;;;;;;;20.80;99.90;;;;;;5030941;28;19932;-78
2023/05/07 14:22:15;;;;;;;;;;;20.70;99.90;;;;;;5030860;28;20048;-79
2023/05/07 14:24:44;;;;;;;;;;;20.60;99.90;;;;;;5062036;28;19930;-79
2023/05/07 14:27:11;;;;;;;;;;;20.60;99.90;;;;;;5030033;28;19929;-80
2023/05/07 14:29:38;;;;;;;;;;;20.30;99.90;;;;;;5035978;28;19933;-82
2023/05/07 14:32:06;;;;;;;;;;;20.20;99.90;;;;;;5040731;28;19925;-83
2023/05/07 14:34:33;;;;;;;;;;;20.20;99.90;;;;;;5044131;28;19924;-81
2023/05/07 14:37:01;;;;;;;;;;;20.30;99.90;;;;;;5044802;28;19971;-83
2023/05/07 14:39:29;;;;;;;;;;;20.30;99.90;;;;;;5042364;28;19992;-80
2023/05/07 14:41:57;;;;;;;;;;;20.50;99.90;;;;;;5031713;28;19943;-80
2023/05/07 14:44:25;;;;;;;;;;;20.80;99.90;;;;;;5031686;28;19929;-79
2023/05/07 14:46:52;;;;;;;;;;;20.80;99.90;;;;;;5029952;28;19929;-79
2023/05/07 14:49:24;;;;;;;;;;;21.10;99.90;;;;;;5030349;28;19971;-79
2023/05/07 14:51:53;;;;;;;;;;;21.50;99.90;;;;;;5033414;28;20068;-80
2023/05/07 14:54:20;;;;;;;;;;;21.50;99.90;;;;;;5035719;28;20711;-80
2023/05/07 14:56:47;;;;;;;;;;;21.50;99.90;;;;;;5067308;28;19937;-80
2023/05/07 14:59:17;;;;;;;;;;;21.50;99.90;;;;;;5036050;28;19956;-80
2023/05/07 15:01:45;;;;;;;;;;;21.40;99.90;;;;;;5034277;28;19936;-80
2023/05/07 15:04:12;;;;;;;;;;;21.40;99.90;;;;;;5034491;28;19982;-79
2023/05/07 15:06:39;;;;;;;;;;;21.40;99.90;;;;;;5037613;28;19929;-80
2023/05/07 15:09:07;;;;;;;;;;;21.50;99.90;;;;;;5038496;28;20426;-80